Detall de PIREP

Printer-friendly versionPDF version

[2014/08/01 08:55:00]
Flight IATA:CT1004
Pilot Number:042
Company ICAO:CAT
Aircraft Type:B763/F
PAX:150
Departing Airport: LEBL
Destination Airport: LFMN
Alternate Airport:LFLL
Online: VATSIM
Route:DALIN UN870 SOSUR UM976 MRM UY122 ABLAK
Flight Level:F260
No Slew and time accel
No pause
Crash detect
Detect pilot in Cockpit between each 30 and 45 minutes
08:55 Zero fuel Weight: 408051 Lbs, Fuel Weight: 320571 Lbs
08:55 VATSIM:LEBL 010830Z VRB02KT 9999 FEW020 26/19 Q1011 NOSIG
08:55 VATSIM:LFMN 010830Z 13005KT 100V160 9999 FEW016 BKN031 25/19 Q1011 NOSIG
09:32 Parking Brakes off
09:48 Take-off
09:48 Take off Weight: 724315 Lbs
09:48 Wind: 199º @ 009 Knots Heading: 245º
09:48 POS N41º 16´ 52´´ E002º 04´ 17´´
09:48 Flaps:2 at 195 Knots
09:48 Gear Up: 195 Knots
09:48 Flaps:1 at 202 Knots
09:49 Flaps:0 at 255 Knots
10:03 Wind:158º@001 Knots Heading: 046º Ground Speed: 482 Knots Altitude 21564 ft
10:08 TOC
10:08 Fuel Weight: 304788 Lb
10:18 Wind:314º@003 Knots Heading: 016º Ground Speed: 463 Knots Altitude 25902 ft
10:19 TOD
10:19 Fuel Weight: 301647 Lb
10:29 Flaps:1 at 276 Knots
10:29 Flaps:2 at 269 Knots
10:29 Flaps:1 at 268 Knots
10:33 Wind:116º@003 Knots Heading: 358º Ground Speed: 284 Knots Altitude 12936 ft
10:40 Flaps:2 at 208 Knots
10:42 Gear Down: 209 Knots
10:43 Gear Up: 209 Knots
10:43 Flaps:3 at 211 Knots
10:47 Gear Down: 195 Knots
10:47 Flaps:4 at 210 Knots
10:48 Wind:135º@006 Knots Heading: 046º Ground Speed: 214 Knots Altitude 2063 ft
10:48 Flaps:5 at 200 Knots
10:50 TouchDown:Rate -604 ft/min Speed: 174 Knots
10:50 VATSIM:LFMN 011030Z 12007KT 9999 FEW016 BKN033 25/20 Q1011 NOSIG
10:50 Land
10:50 Wind:119º@006 Knots
10:50 Heading: 044º
10:50 Flight Duration: 01:02
10:50 Landing Weight: 702916 Lbs
10:50 POS N43º 39´ 26´´ E007º 13´ 02´´
10:56 Parking brakes on
10:56 Block to Block Duration: 01:24
10:56 Final Fuel: 293120 Lbls
10:56 Spent Fuel: 27451 Lbls
10:56 Flight Length: 386 NM
10:56 TOD Land Length: 162 NM

Exportar CSV

Powered by Drupal - Modified by Danger4k